Time;durP1;ratioP1;P1;durP2;ratioP2;P2;SDS_P1;SDS_P2;PMS_P1;PMS_P2;Temp;Humidity;BMP_temperature;BMP_pressure;BME280_temperature;BME280_humidity;BME280_pressure;Samples;Min_cycle;Max_cycle;Signal;HPM_P1;HPM_P2
2022/06/10 00:00:10;;;;;;;2.25;1.35;;;;;;;15.99;85.16;96784.78;5036554;28;20201;-75
2022/06/10 00:02:36;;;;;;;3.17;1.30;;;;;;;15.91;83.20;96795.56;5034591;28;20209;-75
2022/06/10 00:05:05;;;;;;;1.50;1.20;;;;;;;15.81;83.57;96793.44;5039713;28;20216;-75
2022/06/10 00:07:34;;;;;;;3.08;1.50;;;;;;;15.51;82.34;96792.03;5039929;28;20237;-75
2022/06/10 00:10:01;;;;;;;2.88;1.20;;;;;;;15.47;83.22;96790.78;5039603;28;20237;-74
2022/06/10 00:12:27;;;;;;;3.00;1.38;;;;;;;15.56;82.70;96800.25;5038775;28;20201;-75
2022/06/10 00:14:54;;;;;;;5.10;1.65;;;;;;;15.57;84.00;96799.25;5039858;28;20205;-74
2022/06/10 00:17:20;;;;;;;4.05;1.60;;;;;;;15.49;83.67;96800.22;5039421;28;20233;-75
2022/06/10 00:19:47;;;;;;;2.13;1.42;;;;;;;15.64;84.48;96792.13;5039861;28;20212;-75
2022/06/10 00:22:15;;;;;;;4.90;1.50;;;;;;;15.81;84.52;96796.09;5038818;28;20991;-76
2022/06/10 00:24:41;;;;;;;4.13;1.80;;;;;;;15.71;85.27;96795.66;5039523;28;20197;-74
2022/06/10 00:27:08;;;;;;;2.65;1.50;;;;;;;15.76;85.10;96802.03;5039303;28;21132;-75
2022/06/10 00:29:35;;;;;;;2.63;1.45;;;;;;;15.72;85.61;96791.97;5040039;28;20221;-75
2022/06/10 00:32:02;;;;;;;4.03;1.52;;;;;;;15.82;85.26;96808.38;5039363;28;20267;-75
2022/06/10 00:34:28;;;;;;;3.20;1.70;;;;;;;15.71;84.49;96799.13;5037863;28;20205;-74
2022/06/10 00:36:56;;;;;;;3.20;1.52;;;;;;;15.74;85.43;96803.25;5039523;28;20224;-75
2022/06/10 00:39:23;;;;;;;4.50;1.50;;;;;;;15.90;85.13;96801.91;5039012;28;20748;-75
2022/06/10 00:41:51;;;;;;;2.85;1.60;;;;;;;15.76;86.07;96803.84;5039559;28;20665;-75
2022/06/10 00:44:32;;;;;;;2.40;1.67;;;;;;;15.88;85.68;96806.59;5035211;28;20652;-75
2022/06/10 00:46:59;;;;;;;5.60;1.90;;;;;;;15.58;86.88;96804.38;5038974;28;20229;-74
2022/06/10 00:49:25;;;;;;;4.20;1.75;;;;;;;15.59;87.40;96813.97;5039168;28;20225;-75
2022/06/10 00:51:55;;;;;;;4.68;1.90;;;;;;;15.66;87.42;96804.22;5039412;28;20205;-75
2022/06/10 00:54:30;;;;;;;2.40;1.60;;;;;;;15.69;87.74;96800.34;5037764;28;20210;-75
2022/06/10 00:57:02;;;;;;;4.13;1.85;;;;;;;15.62;88.43;96804.81;5039318;28;20221;-74
2022/06/10 00:59:33;;;;;;;3.53;1.90;;;;;;;15.45;89.24;96801.63;5038842;28;20193;-74
2022/06/10 01:02:03;;;;;;;2.30;1.63;;;;;;;15.50;89.42;96803.69;5038924;28;20208;-75
2022/06/10 01:04:30;;;;;;;8.65;2.20;;;;;;;15.23;90.38;96804.47;5038301;28;20197;-75
2022/06/10 01:06:58;;;;;;;3.05;1.90;;;;;;;15.23;90.76;96809.00;5039003;28;20228;-74
2022/06/10 01:09:28;;;;;;;2.72;1.80;;;;;;;15.38;90.68;96807.88;5038544;28;20221;-75
2022/06/10 01:12:30;;;;;;;3.65;1.90;;;;;;;15.31;91.04;96804.34;5038615;28;20568;-75
2022/06/10 01:15:13;;;;;;;2.95;1.85;;;;;;;15.33;91.91;96807.63;5038848;28;20205;-74
2022/06/10 01:17:52;;;;;;;6.68;2.20;;;;;;;15.24;92.37;96802.66;5038589;28;20263;-75
2022/06/10 01:20:29;;;;;;;5.40;2.10;;;;;;;15.25;92.57;96810.44;5038086;28;20291;-75
2022/06/10 01:23:18;;;;;;;6.97;2.08;;;;;;;15.35;92.25;96805.59;5037427;28;20212;-74
2022/06/10 01:26:22;;;;;;;6.43;2.03;;;;;;;15.36;91.85;96817.88;5038566;28;20201;-75
2022/06/10 01:29:18;;;;;;;3.50;1.88;;;;;;;15.33;92.10;96818.25;5037768;28;20228;-75
2022/06/10 01:31:49;;;;;;;3.65;2.20;;;;;;;15.21;93.45;96814.50;5038368;28;20205;-74
2022/06/10 01:34:27;;;;;;;5.15;1.98;;;;;;;15.19;93.77;96821.78;5037086;28;20205;-75
2022/06/10 01:37:01;;;;;;;4.95;2.03;;;;;;;15.14;94.44;96813.56;5037997;28;20307;-74
2022/06/10 01:39:38;;;;;;;5.38;2.40;;;;;;;15.20;94.52;96820.78;5038773;28;20195;-74
2022/06/10 01:42:12;;;;;;;2.42;1.80;;;;;;;15.27;94.23;96809.25;5037808;28;20201;-75
2022/06/10 01:44:48;;;;;;;5.05;2.10;;;;;;;15.07;95.31;96818.00;5034544;28;20197;-74
2022/06/10 01:47:21;;;;;;;5.57;2.10;;;;;;;14.90;97.02;96821.91;5038858;28;20236;-74
2022/06/10 01:49:54;;;;;;;2.92;1.80;;;;;;;15.12;96.37;96826.22;5038172;28;20228;-74
2022/06/10 01:52:32;;;;;;;6.18;2.50;;;;;;;14.98;96.73;96824.47;5036718;28;20205;-75
2022/06/10 01:55:04;;;;;;;4.85;1.98;;;;;;;14.92;97.81;96829.69;5038256;28;20204;-74
2022/06/10 01:57:36;;;;;;;2.60;1.90;;;;;;;15.05;97.13;96825.31;5037670;28;20761;-74
2022/06/10 02:00:10;;;;;;;4.82;1.92;;;;;;;15.13;96.97;96825.19;5037624;28;20209;-75
2022/06/10 02:02:42;;;;;;;6.50;2.03;;;;;;;15.14;97.32;96823.38;5037180;28;20201;-75
2022/06/10 02:05:14;;;;;;;4.50;2.50;;;;;;;15.08;97.48;96822.28;5037202;28;20680;-75
2022/06/10 02:07:45;;;;;;;5.90;2.10;;;;;;;15.19;96.98;96826.28;5037485;28;20221;-75
2022/06/10 02:10:17;;;;;;;4.13;2.30;;;;;;;15.09;97.60;96815.97;5037625;28;20228;-74
2022/06/10 02:12:50;;;;;;;6.68;2.25;;;;;;;15.10;97.67;96825.59;5037026;28;20203;-74
2022/06/10 02:15:23;;;;;;;4.82;2.20;;;;;;;15.09;97.94;96825.78;5037381;28;20212;-75
2022/06/10 02:17:58;;;;;;;4.78;2.35;;;;;;;15.13;97.44;96838.47;5037554;28;20721;-75
2022/06/10 02:20:30;;;;;;;3.95;2.22;;;;;;;15.09;97.57;96842.50;5037349;28;20208;-75
2022/06/10 02:23:02;;;;;;;4.45;2.03;;;;;;;15.07;98.08;96839.25;5035917;28;20201;-74
2022/06/10 02:25:34;;;;;;;4.78;2.28;;;;;;;14.87;98.27;96848.84;5036864;28;20193;-74
2022/06/10 02:28:07;;;;;;;4.43;1.92;;;;;;;14.97;98.19;96849.34;5037156;28;20664;-74
2022/06/10 02:30:42;;;;;;;4.30;2.20;;;;;;;15.06;97.46;96852.69;5036977;28;21245;-75
2022/06/10 02:33:12;;;;;;;5.40;2.88;;;;;;;14.82;98.58;96843.25;5036220;28;21086;-75
2022/06/10 02:35:46;;;;;;;6.95;2.38;;;;;;;15.09;97.72;96847.00;5036985;28;20201;-75
2022/06/10 02:38:24;;;;;;;2.97;2.20;;;;;;;15.05;98.17;96843.09;5037085;28;20224;-74
2022/06/10 02:40:57;;;;;;;4.53;2.13;;;;;;;15.11;97.59;96844.97;5037254;28;20205;-75
2022/06/10 02:43:32;;;;;;;3.83;2.13;;;;;;;15.19;96.98;96845.69;5033270;28;20212;-74
2022/06/10 02:46:06;;;;;;;6.57;2.08;;;;;;;15.00;97.16;96848.97;5036637;28;20200;-75
2022/06/10 02:48:41;;;;;;;5.65;2.50;;;;;;;14.87;97.44;96850.69;5037068;28;20220;-74
2022/06/10 02:51:08;;;;;;;4.80;2.38;;;;;;;14.63;98.27;96857.13;5036675;28;20212;-74
2022/06/10 02:53:40;;;;;;;3.95;2.20;;;;;;;14.94;97.64;96849.75;5035550;28;20201;-75
2022/06/10 02:56:16;;;;;;;6.05;2.67;;;;;;;14.78;98.18;96846.50;5036944;28;20239;-75
2022/06/10 03:01:47;;;;;;;5.97;2.33;;;;;;;14.65;98.40;96852.47;4997034;28;20199;-75
2022/06/10 03:04:22;;;;;;;2.88;2.03;;;;;;;14.57;98.98;96856.25;5035318;28;20208;-74
2022/06/10 03:07:07;;;;;;;6.90;2.17;;;;;;;14.61;98.57;96852.22;5036972;28;20866;-75
2022/06/10 03:09:47;;;;;;;7.80;2.45;;;;;;;14.63;98.44;96863.47;5036184;28;20705;-75
2022/06/10 03:12:22;;;;;;;7.07;2.05;;;;;;;14.53;99.05;96858.44;5036495;28;20205;-75
2022/06/10 03:15:01;;;;;;;7.57;2.50;;;;;;;14.51;99.74;96867.59;5036302;28;20209;-75
2022/06/10 03:17:36;;;;;;;4.05;1.88;;;;;;;14.49;99.39;96861.66;5035856;28;20232;-75
2022/06/10 03:20:15;;;;;;;4.68;2.50;;;;;;;14.51;98.87;96870.25;5036594;28;20205;-74
2022/06/10 03:23:04;;;;;;;5.97;2.42;;;;;;;14.62;97.89;96872.44;5035839;28;20372;-74
2022/06/10 03:25:37;;;;;;;5.25;2.15;;;;;;;14.46;98.76;96881.41;5036587;28;20201;-74
2022/06/10 03:28:10;;;;;;;3.75;2.50;;;;;;;14.34;98.20;96880.22;5036816;28;20302;-74
2022/06/10 03:30:45;;;;;;;4.90;2.40;;;;;;;14.45;98.09;96874.47;5036246;28;20221;-74
2022/06/10 03:33:15;;;;;;;4.10;2.42;;;;;;;14.26;98.62;96875.03;5035246;28;20205;-74
2022/06/10 03:35:47;;;;;;;4.35;2.35;;;;;;;14.33;98.86;96880.41;5036461;28;20205;-74
2022/06/10 03:38:14;;;;;;;8.18;2.53;;;;;;;14.12;99.58;96883.00;5037662;28;21421;-75
2022/06/10 03:40:42;;;;;;;7.25;2.40;;;;;;;14.21;99.43;96887.19;5040242;28;20201;-75
2022/06/10 03:43:13;;;;;;;4.97;2.20;;;;;;;14.22;99.18;96887.00;5039029;28;20311;-75
2022/06/10 03:45:44;;;;;;;5.82;2.38;;;;;;;14.19;99.20;96890.03;5039638;28;20229;-74
2022/06/10 03:48:16;;;;;;;3.70;2.47;;;;;;;14.31;98.50;96896.50;5039964;28;20604;-75
2022/06/10 03:50:46;;;;;;;4.28;2.45;;;;;;;14.33;98.32;96891.03;5040508;28;20243;-74
2022/06/10 03:53:16;;;;;;;7.00;2.55;;;;;;;14.26;99.28;96898.88;5039272;28;20994;-75
2022/06/10 03:55:42;;;;;;;8.85;3.00;;;;;;;14.15;99.18;96904.66;5040185;28;20211;-75
2022/06/10 03:58:10;;;;;;;6.03;2.42;;;;;;;14.04;100.00;96901.63;5040402;28;20236;-74
2022/06/10 04:00:37;;;;;;;4.60;2.40;;;;;;;14.11;100.00;96907.84;5039811;28;20197;-74
2022/06/10 04:03:05;;;;;;;10.55;2.80;;;;;;;14.17;100.00;96915.09;5038756;28;21053;-75
2022/06/10 04:05:31;;;;;;;5.00;2.80;;;;;;;14.13;100.00;96913.81;5040260;28;20197;-74
2022/06/10 04:07:59;;;;;;;3.67;2.35;;;;;;;14.19;100.00;96913.91;5040844;28;20247;-74
2022/06/10 04:10:29;;;;;;;12.63;2.72;;;;;;;14.15;100.00;96919.72;5039383;28;20225;-74
2022/06/10 04:12:55;;;;;;;5.50;2.60;;;;;;;13.86;100.00;96918.84;5038483;28;20460;-75
2022/06/10 04:15:24;;;;;;;7.80;2.42;;;;;;;13.87;100.00;96918.66;5039942;28;20212;-75
2022/06/10 04:17:51;;;;;;;9.40;2.80;;;;;;;14.05;100.00;96921.78;5039950;28;20228;-74
2022/06/10 04:20:22;;;;;;;6.65;2.88;;;;;;;14.12;100.00;96920.91;5039400;28;20202;-74
2022/06/10 04:22:48;;;;;;;6.50;2.50;;;;;;;14.08;100.00;96922.28;5038856;28;20193;-74
2022/06/10 04:25:16;;;;;;;6.13;2.55;;;;;;;14.14;100.00;96923.38;5039560;28;20205;-75
2022/06/10 04:27:43;;;;;;;4.50;2.70;;;;;;;14.16;100.00;96916.88;5038746;28;21019;-74
2022/06/10 04:30:20;;;;;;;6.82;2.80;;;;;;;14.27;100.00;96915.63;5039929;28;20232;-74
2022/06/10 04:32:46;;;;;;;10.27;2.50;;;;;;;14.25;99.73;96917.63;5038909;28;20205;-74
2022/06/10 04:35:13;;;;;;;4.22;2.20;;;;;;;14.10;100.00;96919.44;5039060;28;20205;-74
2022/06/10 04:37:39;;;;;;;5.78;2.50;;;;;;;14.03;100.00;96916.66;5039500;28;20705;-74
2022/06/10 04:40:07;;;;;;;7.82;2.70;;;;;;;14.33;99.48;96926.34;5039332;28;20201;-75
2022/06/10 04:42:35;;;;;;;9.10;2.72;;;;;;;14.24;100.00;96932.72;5038231;28;20201;-74
2022/06/10 04:45:02;;;;;;;7.63;2.70;;;;;;;14.11;100.00;96929.06;5035392;28;20197;-72
2022/06/10 04:47:28;;;;;;;6.20;2.88;;;;;;;14.38;98.71;96939.84;5039182;28;20225;-73
2022/06/10 04:49:59;;;;;;;4.38;2.55;;;;;;;14.65;97.77;96939.19;5038440;28;20242;-73
2022/06/10 04:52:26;;;;;;;5.40;2.60;;;;;;;14.48;98.58;96934.28;5038392;28;20213;-73
2022/06/10 04:54:53;;;;;;;5.68;2.42;;;;;;;14.55;97.81;96932.50;5039054;28;20205;-73
2022/06/10 04:57:20;;;;;;;6.75;2.88;;;;;;;14.45;98.03;96932.81;5038598;28;21181;-73
2022/06/10 04:59:49;;;;;;;5.63;2.65;;;;;;;14.74;97.64;96938.91;5038961;28;20201;-73
2022/06/10 05:02:16;;;;;;;5.75;2.78;;;;;;;14.60;97.45;96946.03;5038645;28;20223;-73
2022/06/10 05:04:42;;;;;;;5.88;2.70;;;;;;;14.74;97.11;96949.50;5038750;28;20197;-73
2022/06/10 05:07:09;;;;;;;7.80;2.97;;;;;;;14.56;97.61;96953.56;5038481;28;21036;-73
2022/06/10 05:09:35;;;;;;;8.63;2.75;;;;;;;14.57;97.84;96957.03;5038112;28;20226;-73
2022/06/10 05:12:02;;;;;;;5.82;2.53;;;;;;;14.69;96.83;96959.84;5038826;28;20201;-73
2022/06/10 05:14:28;;;;;;;5.22;2.38;;;;;;;14.70;96.76;96964.16;5037942;28;20205;-73
2022/06/10 05:16:57;;;;;;;5.70;2.67;;;;;;;15.07;95.63;96964.00;5038365;28;20225;-73
2022/06/10 05:19:24;;;;;;;8.57;2.78;;;;;;;14.82;95.10;96967.97;5038432;28;20194;-73
2022/06/10 05:21:51;;;;;;;9.30;2.85;;;;;;;14.66;95.62;96968.19;5038253;28;20205;-73
2022/06/10 05:24:17;;;;;;;6.03;2.58;;;;;;;14.74;95.05;96970.75;5037783;28;20725;-73
2022/06/10 05:26:44;;;;;;;7.57;2.53;;;;;;;14.72;94.63;96967.44;5037750;28;20205;-73
2022/06/10 05:29:10;;;;;;;4.10;2.72;;;;;;;14.94;94.63;96965.66;5038988;28;20225;-73
2022/06/10 05:31:37;;;;;;;4.93;2.13;;;;;;;14.90;94.67;96969.72;5038216;28;20700;-73
2022/06/10 05:36:49;;;;;;;5.32;2.60;;;;;;;15.02;93.02;96977.00;5038670;28;20243;-73
2022/06/10 05:39:15;;;;;;;7.20;2.50;;;;;;;15.32;92.86;96970.63;5037881;28;21263;-73
2022/06/10 05:44:26;;;;;;;7.20;2.50;;;;;;;15.57;91.94;96972.75;5033422;28;20636;-73
2022/06/10 05:46:53;;;;;;;9.18;2.90;;;;;;;15.80;91.61;96973.38;5037628;28;20221;-73
2022/06/10 05:49:22;;;;;;;7.10;2.30;;;;;;;15.93;90.42;96974.28;5037763;28;20775;-70
2022/06/10 05:51:48;;;;;;;3.72;2.47;;;;;;;15.94;90.00;96983.91;5038072;28;20198;-70
2022/06/10 05:54:16;;;;;;;7.57;2.67;;;;;;;16.08;89.82;96990.16;5036495;28;20207;-70
2022/06/10 05:56:43;;;;;;;6.22;2.42;;;;;;;16.10;89.77;96986.31;5037800;28;20206;-70
2022/06/10 05:59:10;;;;;;;3.53;2.00;;;;;;;16.03;88.22;96984.59;5037477;28;20209;-70
2022/06/10 06:01:37;;;;;;;6.22;2.40;;;;;;;15.86;88.32;96981.41;5036754;28;20204;-70
2022/06/10 06:04:04;;;;;;;7.55;2.00;;;;;;;15.88;88.07;96984.69;5037134;28;20197;-70
2022/06/10 06:06:32;;;;;;;4.75;2.05;;;;;;;16.08;87.40;96985.66;5037538;28;20201;-70
2022/06/10 06:08:59;;;;;;;2.90;2.00;;;;;;;16.02;87.98;96981.09;5037598;28;20205;-70
2022/06/10 06:11:25;;;;;;;5.60;2.10;;;;;;;16.24;87.55;96980.06;5037545;28;20303;-70
2022/06/10 06:13:52;;;;;;;3.97;2.20;;;;;;;16.28;86.80;96980.53;5036609;28;20201;-71
2022/06/10 06:16:19;;;;;;;4.28;2.17;;;;;;;16.53;86.33;96980.72;5037321;28;20220;-71
2022/06/10 06:18:48;;;;;;;3.42;2.00;;;;;;;16.66;85.55;96985.28;5037515;28;20635;-71
2022/06/10 06:21:14;;;;;;;5.95;2.28;;;;;;;16.71;85.25;96981.03;5037470;28;20201;-71
2022/06/10 06:23:42;;;;;;;2.10;1.60;;;;;;;16.64;82.30;96980.16;5036654;28;20208;-70
2022/06/10 06:26:13;;;;;;;3.28;1.85;;;;;;;16.80;81.50;96986.97;5037330;28;20212;-71
2022/06/10 06:28:40;;;;;;;3.60;1.90;;;;;;;16.65;81.18;96986.31;5037164;28;20228;-71
2022/06/10 06:31:06;;;;;;;4.18;1.83;;;;;;;16.92;81.97;96988.91;5036589;28;20243;-71
2022/06/10 06:33:33;;;;;;;3.20;1.90;;;;;;;17.08;81.99;96991.22;5036166;28;20204;-70
2022/06/10 06:35:59;;;;;;;8.57;2.13;;;;;;;16.96;79.22;96992.00;5036817;28;20733;-70
2022/06/10 06:38:28;;;;;;;6.40;1.70;;;;;;;16.97;77.32;96994.47;5037152;28;20236;-70
2022/06/10 06:40:56;;;;;;;3.80;1.67;;;;;;;16.98;76.69;97000.59;5036018;28;20579;-70
2022/06/10 06:43:22;;;;;;;2.83;1.65;;;;;;;17.15;76.63;96998.22;5030321;28;20228;-70
2022/06/10 06:45:49;;;;;;;4.65;1.85;;;;;;;17.02;77.10;97005.34;5036633;28;20331;-70
2022/06/10 06:48:16;;;;;;;2.70;1.67;;;;;;;17.14;77.65;97001.91;5037291;28;20225;-70
2022/06/10 06:50:45;;;;;;;4.90;1.80;;;;;;;17.39;78.56;96995.06;5036790;28;20217;-70
2022/06/10 06:53:12;;;;;;;2.60;1.75;;;;;;;17.62;77.58;97003.53;5035796;28;20208;-70
2022/06/10 06:55:40;;;;;;;3.10;1.70;;;;;;;17.72;76.20;97004.78;5037252;28;20198;-71
2022/06/10 06:58:13;;;;;;;4.78;1.80;;;;;;;17.73;77.53;97008.25;5036487;28;20228;-71
2022/06/10 07:00:39;;;;;;;5.03;2.35;;;;;;;17.52;76.70;97008.41;5036859;28;20204;-70
2022/06/10 07:03:06;;;;;;;6.07;2.03;;;;;;;17.75;75.18;97007.03;5035938;28;20208;-70
2022/06/10 07:05:33;;;;;;;4.43;1.60;;;;;;;17.87;74.60;97004.56;5036344;28;20212;-70
2022/06/10 07:08:00;;;;;;;4.78;1.90;;;;;;;18.00;77.55;97009.97;5036524;28;20224;-71
2022/06/10 07:10:26;;;;;;;5.95;2.00;;;;;;;17.88;76.49;97004.41;5036442;28;20232;-70
2022/06/10 07:12:53;;;;;;;8.30;2.30;;;;;;;18.06;72.94;97009.97;5034882;28;20677;-70
2022/06/10 07:15:22;;;;;;;4.85;1.98;;;;;;;18.33;72.92;97006.28;5035885;28;20212;-70
2022/06/10 07:17:48;;;;;;;3.10;1.92;;;;;;;18.23;73.66;97015.72;5035967;28;20233;-70
2022/06/10 07:20:21;;;;;;;8.18;1.80;;;;;;;18.35;72.02;97010.41;5035738;28;20220;-70
2022/06/10 07:22:48;;;;;;;6.15;1.90;;;;;;;18.46;71.88;97009.75;5034678;28;20200;-70
2022/06/10 07:25:15;;;;;;;4.75;1.80;;;;;;;18.41;71.96;97014.88;5036146;28;20225;-70
2022/06/10 07:27:42;;;;;;;4.25;1.77;;;;;;;18.50;72.56;97005.66;5036096;28;20217;-70
2022/06/10 07:30:11;;;;;;;4.40;2.00;;;;;;;18.50;71.96;97010.97;5035790;28;20228;-70
2022/06/10 07:32:39;;;;;;;5.43;1.85;;;;;;;18.75;71.91;97012.00;5034726;28;20205;-69
2022/06/10 07:35:07;;;;;;;5.70;2.40;;;;;;;19.03;71.01;97009.88;5035731;28;20871;-69
2022/06/10 07:37:33;;;;;;;4.32;2.08;;;;;;;18.62;70.88;97005.84;5035691;28;20917;-69
2022/06/10 07:40:00;;;;;;;2.70;2.05;;;;;;;18.79;70.26;97010.53;5035390;28;20343;-70
2022/06/10 07:42:25;;;;;;;4.07;1.88;;;;;;;18.76;70.99;97007.44;5035137;28;20197;-69
2022/06/10 07:44:54;;;;;;;3.97;1.67;;;;;;;18.92;68.80;97007.03;5032712;28;20208;-71
2022/06/10 07:47:21;;;;;;;3.30;1.80;;;;;;;18.99;70.04;97005.94;5035407;28;20228;-70
2022/06/10 07:49:49;;;;;;;7.55;2.28;;;;;;;18.79;71.16;97005.19;5035737;28;20198;-71
2022/06/10 07:52:16;;;;;;;5.50;1.90;;;;;;;18.95;69.12;97007.41;5034610;28;20263;-70
2022/06/10 07:54:43;;;;;;;5.97;2.10;;;;;;;19.20;70.97;97011.06;5035519;28;20201;-70
2022/06/10 07:57:11;;;;;;;4.78;2.20;;;;;;;19.38;66.14;97003.97;5035635;28;20252;-71
2022/06/10 07:59:40;;;;;;;5.10;1.80;;;;;;;19.43;68.66;97000.69;5036562;28;20209;-71
2022/06/10 08:02:06;;;;;;;5.32;1.80;;;;;;;19.56;68.79;96997.94;5034876;28;20875;-70
2022/06/10 08:04:33;;;;;;;8.23;1.92;;;;;;;19.79;66.37;96999.88;5034289;28;20197;-71
2022/06/10 08:07:01;;;;;;;4.82;1.80;;;;;;;20.20;66.04;97000.22;5035535;28;20247;-70
2022/06/10 08:09:27;;;;;;;5.15;1.95;;;;;;;19.87;64.20;96993.41;5035663;28;20208;-71
2022/06/10 08:11:54;;;;;;;2.55;1.88;;;;;;;20.28;64.95;96995.41;5036238;28;20232;-71
2022/06/10 08:14:21;;;;;;;4.32;1.80;;;;;;;20.52;66.16;96989.22;5035317;28;20670;-71
2022/06/10 08:16:48;;;;;;;3.08;1.70;;;;;;;20.38;64.44;96993.06;5035168;28;20209;-70
2022/06/10 08:19:15;;;;;;;5.60;1.85;;;;;;;20.30;61.85;96987.16;5035949;28;20221;-70
2022/06/10 08:24:27;;;;;;;2.45;1.33;;;;;;;20.38;63.31;96984.22;5036161;28;20262;-69
2022/06/10 08:26:54;;;;;;;3.63;1.98;;;;;;;20.23;63.52;96987.19;5039460;28;20228;-71
2022/06/10 08:29:20;;;;;;;7.53;1.73;;;;;;;19.93;64.07;96982.69;5039519;28;20209;-71
2022/06/10 08:31:47;;;;;;;4.80;1.98;;;;;;;20.20;64.26;96992.19;5039457;28;20237;-70
2022/06/10 08:34:14;;;;;;;5.05;1.90;;;;;;;20.48;64.18;96985.34;5038328;28;20205;-71
2022/06/10 08:36:41;;;;;;;3.85;1.70;;;;;;;20.37;60.26;96982.56;5039101;28;21313;-70
2022/06/10 08:39:08;;;;;;;4.93;1.67;;;;;;;20.87;61.80;96977.78;5039466;28;20205;-69
2022/06/10 08:41:57;;;;;;;7.32;1.42;;;;;;;20.78;58.01;96983.63;5039281;28;20201;-70
2022/06/10 08:44:30;;;;;;;4.35;1.50;;;;;;;20.61;59.25;96985.22;5036104;28;20205;-71
2022/06/10 08:47:13;;;;;;;5.32;1.42;;;;;;;20.83;57.66;96981.91;5039014;28;20228;-70
2022/06/10 08:50:03;;;;;;;9.98;1.80;;;;;;;21.27;59.50;96994.19;5038699;28;21100;-71
2022/06/10 08:52:38;;;;;;;6.35;1.10;;;;;;;21.39;57.02;96987.06;5038446;28;20216;-74
2022/06/10 08:55:20;;;;;;;6.22;1.40;;;;;;;21.30;55.15;96991.88;5038526;28;20291;-75
2022/06/10 08:57:49;;;;;;;8.93;1.60;;;;;;;21.07;53.76;96989.06;5036095;28;20224;-74
2022/06/10 09:00:20;;;;;;;3.15;1.13;;;;;;;20.54;55.76;96989.81;5037587;28;20213;-75
2022/06/10 09:02:53;;;;;;;5.20;1.27;;;;;;;20.24;57.02;96986.16;5036802;28;20295;-74
2022/06/10 09:05:25;;;;;;;5.85;1.40;;;;;;;19.93;58.34;96985.38;5036280;28;20201;-74
2022/06/10 09:07:54;;;;;;;6.22;1.48;;;;;;;20.60;55.22;96980.09;5038223;28;20414;-74
2022/06/10 09:10:26;;;;;;;5.18;1.52;;;;;;;20.53;54.08;96985.50;5037634;28;20221;-75
2022/06/10 09:13:10;;;;;;;7.65;1.20;;;;;;;20.45;54.26;96987.63;5036670;28;20229;-75
2022/06/10 09:15:43;;;;;;;3.10;1.25;;;;;;;20.69;54.43;96984.94;5038622;28;20209;-74
2022/06/10 09:18:20;;;;;;;1.92;1.25;;;;;;;21.25;55.21;96988.25;5038070;28;20229;-74
2022/06/10 09:20:54;;;;;;;3.22;1.38;;;;;;;21.52;57.22;96990.41;5038010;28;20201;-75
2022/06/10 09:23:32;;;;;;;3.60;1.27;;;;;;;21.76;54.91;96990.25;5037059;28;20201;-74
2022/06/10 09:26:07;;;;;;;2.38;1.20;;;;;;;21.67;54.11;96991.63;5037849;28;20292;-74
2022/06/10 09:28:35;;;;;;;5.03;1.42;;;;;;;21.73;55.27;96988.03;5037956;28;20252;-74
2022/06/10 09:31:09;;;;;;;3.63;0.95;;;;;;;21.36;56.96;96993.69;5037952;28;20592;-74
2022/06/10 09:33:43;;;;;;;4.38;1.17;;;;;;;21.50;54.87;96987.94;5036869;28;20205;-75
2022/06/10 09:36:15;;;;;;;4.25;1.20;;;;;;;21.51;57.11;96991.44;5037517;28;20959;-75
2022/06/10 09:38:50;;;;;;;6.43;1.30;;;;;;;22.24;52.84;96991.81;5037760;28;20244;-75
2022/06/10 09:41:28;;;;;;;6.07;1.20;;;;;;;22.69;54.25;96987.53;5037691;28;20201;-75
2022/06/10 09:44:08;;;;;;;3.50;1.40;;;;;;;22.71;51.74;96990.84;5037323;28;20212;-75
2022/06/10 09:46:51;;;;;;;5.22;1.40;;;;;;;22.68;51.76;96986.75;5037602;28;20197;-74
2022/06/10 09:49:39;;;;;;;4.65;1.40;;;;;;;22.33;52.57;96986.94;5036348;28;20209;-74
2022/06/10 09:52:15;;;;;;;2.28;1.30;;;;;;;22.61;50.99;96984.41;5036984;28;20660;-74
2022/06/10 09:54:53;;;;;;;4.45;1.48;;;;;;;22.23;52.22;96984.78;5036785;28;20431;-74
2022/06/10 09:57:48;;;;;;;1.27;1.02;;;;;;;21.67;51.83;96988.13;5036442;28;20228;-74
2022/06/10 10:00:19;;;;;;;2.28;1.02;;;;;;;21.92;51.68;96980.75;5037031;28;20201;-74
2022/06/10 10:03:00;;;;;;;6.75;1.60;;;;;;;22.39;51.02;96981.47;5036862;28;20209;-75
2022/06/10 10:05:46;;;;;;;7.00;1.48;;;;;;;22.97;49.90;96977.69;5035141;28;20201;-74
2022/06/10 10:08:23;;;;;;;4.00;1.50;;;;;;;23.35;48.43;96973.44;5037179;28;20221;-74
2022/06/10 10:10:54;;;;;;;3.97;1.30;;;;;;;23.32;49.60;96967.75;5037597;28;20228;-74
2022/06/10 10:13:38;;;;;;;2.40;1.30;;;;;;;22.97;45.40;96974.22;5036615;28;20208;-74
2022/06/10 10:16:20;;;;;;;2.97;1.02;;;;;;;23.20;46.09;96968.81;5038610;28;20216;-74
2022/06/10 10:19:04;;;;;;;5.88;1.30;;;;;;;23.54;47.18;96964.16;5037025;28;20723;-74
2022/06/10 10:21:41;;;;;;;5.55;1.35;;;;;;;23.92;45.69;96964.38;5036995;28;20204;-74
2022/06/10 10:24:14;;;;;;;5.25;1.10;;;;;;;23.71;44.59;96967.72;5036993;28;20256;-74
2022/06/10 10:26:43;;;;;;;2.25;1.35;;;;;;;23.87;44.73;96972.34;5037630;28;20216;-74
2022/06/10 10:29:14;;;;;;;4.63;1.13;;;;;;;24.15;47.70;96961.53;5037013;28;20209;-74
2022/06/10 10:31:46;;;;;;;6.60;1.27;;;;;;;24.29;48.86;96965.56;5038006;28;20216;-74
2022/06/10 10:34:20;;;;;;;4.72;1.30;;;;;;;24.56;46.94;96962.78;5036646;28;20205;-74
2022/06/10 10:36:50;;;;;;;2.35;1.08;;;;;;;24.58;45.68;96966.06;5037510;28;20285;-74
2022/06/10 10:39:25;;;;;;;4.07;1.25;;;;;;;24.61;43.34;96962.06;5037373;28;20209;-74
2022/06/10 10:41:54;;;;;;;11.48;1.00;;;;;;;24.78;44.41;96955.59;5037255;28;20205;-74
2022/06/10 10:44:39;;;;;;;3.33;1.20;;;;;;;24.60;43.64;96969.34;5036374;28;20208;-74
2022/06/10 10:47:21;;;;;;;2.25;0.90;;;;;;;24.97;44.02;96969.59;5036293;28;20732;-74
2022/06/10 10:49:51;;;;;;;5.10;1.70;;;;;;;24.78;42.70;96960.13;5037825;28;20201;-74
2022/06/10 10:52:23;;;;;;;2.20;1.13;;;;;;;25.20;40.51;96960.25;5036627;28;20235;-74
2022/06/10 10:54:55;;;;;;;4.25;1.08;;;;;;;24.61;42.72;96960.16;5037018;28;20201;-74
2022/06/10 10:57:26;;;;;;;2.67;1.30;;;;;;;24.48;45.21;96956.16;5037174;28;20229;-74
2022/06/10 11:00:23;;;;;;;2.95;0.98;;;;;;;23.63;47.90;96962.69;5037172;28;20707;-74
2022/06/10 11:02:53;;;;;;;2.97;1.40;;;;;;;23.30;47.03;96959.88;5036061;28;20224;-74
2022/06/10 11:05:26;;;;;;;4.13;1.50;;;;;;;23.35;48.01;96961.88;5033950;28;20205;-74
2022/06/10 11:08:13;;;;;;;3.17;1.08;;;;;;;23.07;46.28;96966.41;5036116;28;21209;-74
2022/06/10 11:10:49;;;;;;;4.03;1.30;;;;;;;22.63;49.77;96966.97;5036393;28;20805;-74
2022/06/10 11:13:21;;;;;;;3.60;1.40;;;;;;;23.67;47.28;96963.84;5035682;28;21166;-75
2022/06/10 11:15:48;;;;;;;3.85;1.30;;;;;;;23.88;46.28;96965.06;5036570;28;20197;-74
2022/06/10 11:18:16;;;;;;;4.00;1.10;;;;;;;23.86;47.17;96970.72;5036097;28;20282;-74
2022/06/10 11:20:43;;;;;;;5.35;1.40;;;;;;;24.91;45.36;96962.47;5036566;28;20202;-74
2022/06/10 11:23:18;;;;;;;3.67;1.30;;;;;;;25.00;44.49;96959.13;5035657;28;20209;-75
2022/06/10 11:25:46;;;;;;;5.22;1.10;;;;;;;25.05;44.30;96956.53;5036990;28;20207;-74
2022/06/10 11:28:22;;;;;;;2.40;1.08;;;;;;;24.82;42.02;96955.88;5037070;28;20225;-74
2022/06/10 11:30:50;;;;;;;2.83;1.27;;;;;;;23.39;44.26;96958.44;5037130;28;20196;-74
2022/06/10 11:33:27;;;;;;;2.50;1.10;;;;;;;24.14;42.09;96949.94;5035399;28;20207;-75
2022/06/10 11:36:10;;;;;;;3.03;1.00;;;;;;;25.42;43.49;96949.41;5037487;28;20201;-74
2022/06/10 11:38:47;;;;;;;4.38;1.30;;;;;;;25.75;43.10;96952.00;5036478;28;20221;-74
2022/06/10 11:41:22;;;;;;;3.92;1.30;;;;;;;25.40;40.75;96951.56;5035001;28;20208;-74
2022/06/10 11:43:55;;;;;;;2.15;1.00;;;;;;;26.10;40.51;96945.06;5034965;28;20196;-74
2022/06/10 11:46:28;;;;;;;2.50;1.10;;;;;;;26.38;38.45;96940.19;5036169;28;20205;-75
2022/06/10 11:49:03;;;;;;;2.97;1.15;;;;;;;26.62;36.82;96933.38;5035742;28;20454;-74
2022/06/10 11:51:38;;;;;;;2.08;0.90;;;;;;;26.75;39.27;96939.13;5035375;28;20224;-75
2022/06/10 11:54:19;;;;;;;2.55;0.95;;;;;;;27.13;34.66;96936.94;5035171;28;20266;-74
2022/06/10 11:59:50;;;;;;;2.60;1.10;;;;;;;27.30;37.97;96934.88;5037135;28;20684;-75
2022/06/10 12:02:30;;;;;;;2.60;1.13;;;;;;;25.86;41.19;96932.94;5039760;28;20200;-75
2022/06/10 12:05:06;;;;;;;2.08;1.20;;;;;;;25.55;40.48;96941.75;5036385;28;20209;-74